Time;durP1;ratioP1;P1;durP2;ratioP2;P2;SDS_P1;SDS_P2;PMS_P1;PMS_P2;Temp;Humidity;BMP_temperature;BMP_pressure;BME280_temperature;BME280_humidity;BME280_pressure;Samples;Min_cycle;Max_cycle;Signal;HPM_P1;HPM_P2
2022/06/26 00:01:51;;;;;;;4.00;3.60;;;26.30;50.20;;;;;;5025077;28;20336;-49
2022/06/26 00:04:17;;;;;;;3.40;3.10;;;26.30;50.10;;;;;;5021456;28;20922;-49
2022/06/26 00:06:43;;;;;;;7.27;3.00;;;26.40;49.80;;;;;;5020721;28;20202;-50
2022/06/26 00:09:08;;;;;;;3.43;3.13;;;26.40;49.70;;;;;;5021553;28;20656;-48
2022/06/26 00:11:34;;;;;;;3.40;3.20;;;26.30;49.80;;;;;;5027580;28;20189;-51
2022/06/26 00:14:00;;;;;;;4.13;3.13;;;26.30;49.80;;;;;;5026846;28;20272;-50
2022/06/26 00:16:25;;;;;;;3.37;3.17;;;26.40;49.50;;;;;;5025433;28;20197;-50
2022/06/26 00:18:51;;;;;;;3.20;2.97;;;26.40;49.50;;;;;;5022059;28;20209;-51
2022/06/26 00:21:17;;;;;;;3.13;2.90;;;26.50;49.30;;;;;;5027381;28;20221;-50
2022/06/26 00:23:43;;;;;;;3.40;2.67;;;26.60;49.00;;;;;;5025448;28;20194;-50
2022/06/26 00:26:09;;;;;;;2.90;2.70;;;26.50;49.00;;;;;;5029963;28;20459;-49
2022/06/26 00:28:35;;;;;;;3.03;2.80;;;26.40;49.00;;;;;;5030735;28;20199;-48
2022/06/26 00:31:01;;;;;;;3.30;2.93;;;26.40;48.50;;;;;;5027838;28;20803;-48
2022/06/26 00:33:27;;;;;;;4.63;2.80;;;26.10;49.10;;;;;;5031308;28;20196;-48
2022/06/26 00:35:53;;;;;;;3.20;2.90;;;26.10;49.30;;;;;;5027629;28;20189;-50
2022/06/26 00:38:19;;;;;;;3.13;2.90;;;26.10;49.60;;;;;;5025860;28;20837;-50
2022/06/26 00:40:45;;;;;;;3.73;3.07;;;26.20;49.90;;;;;;5026075;28;20455;-51
2022/06/26 00:43:12;;;;;;;3.03;2.77;;;26.30;49.80;;;;;;5026709;28;20483;-50
2022/06/26 00:45:38;;;;;;;3.30;3.10;;;26.30;49.60;;;;;;5007739;28;20642;-50
2022/06/26 00:48:04;;;;;;;3.60;3.30;;;26.40;49.70;;;;;;5026328;28;20527;-50
2022/06/26 00:50:30;;;;;;;3.30;3.10;;;26.40;49.50;;;;;;5021300;28;20185;-51
2022/06/26 00:52:56;;;;;;;4.63;4.23;;;26.50;49.50;;;;;;5028084;28;20532;-51
2022/06/26 00:55:22;;;;;;;4.17;3.80;;;26.60;49.40;;;;;;5027017;28;20239;-50
2022/06/26 00:57:48;;;;;;;3.03;2.80;;;26.70;49.30;;;;;;5027350;28;20451;-50
2022/06/26 01:00:15;;;;;;;3.70;3.17;;;26.60;49.30;;;;;;5025263;28;21362;-49
2022/06/26 01:02:41;;;;;;;2.73;2.50;;;26.40;49.70;;;;;;5028482;28;20487;-50
2022/06/26 01:05:08;;;;;;;3.33;2.90;;;26.40;49.70;;;;;;5025472;28;21061;-50
2022/06/26 01:07:34;;;;;;;3.63;3.30;;;26.50;49.70;;;;;;5029399;28;20946;-48
2022/06/26 01:10:02;;;;;;;3.00;2.80;;;26.60;49.60;;;;;;5026978;28;20451;-50
2022/06/26 01:12:28;;;;;;;3.03;2.73;;;26.60;49.60;;;;;;5028185;28;20649;-49
2022/06/26 01:14:53;;;;;;;4.93;2.57;;;26.50;49.50;;;;;;5031153;28;20440;-48
2022/06/26 01:17:19;;;;;;;2.90;2.63;;;26.50;49.80;;;;;;5031210;28;20247;-50
2022/06/26 01:19:46;;;;;;;2.83;2.63;;;26.50;49.80;;;;;;5025877;28;20292;-49
2022/06/26 01:22:11;;;;;;;3.17;2.97;;;26.50;49.70;;;;;;5026824;28;20228;-50
2022/06/26 01:24:37;;;;;;;3.10;2.80;;;26.60;49.70;;;;;;5025702;28;20952;-47
2022/06/26 01:27:03;;;;;;;3.20;3.00;;;26.70;49.50;;;;;;5022643;28;22026;-49
2022/06/26 01:29:29;;;;;;;6.37;3.13;;;26.70;49.50;;;;;;5024742;28;20200;-47
2022/06/26 01:31:54;;;;;;;5.60;2.90;;;26.70;49.50;;;;;;5022792;28;20434;-49
2022/06/26 01:34:20;;;;;;;3.50;2.63;;;26.70;49.50;;;;;;5028163;28;20193;-49
2022/06/26 01:36:46;;;;;;;3.77;3.47;;;26.70;49.50;;;;;;5024708;28;20197;-47
2022/06/26 01:39:11;;;;;;;3.30;2.40;;;26.70;49.50;;;;;;5020709;28;20197;-48
2022/06/26 01:41:37;;;;;;;2.87;2.67;;;26.70;49.50;;;;;;5028813;28;20232;-47
2022/06/26 01:44:06;;;;;;;3.03;2.83;;;26.70;49.40;;;;;;5026452;28;20208;-50
2022/06/26 01:46:32;;;;;;;3.40;3.20;;;26.80;49.40;;;;;;5027991;28;20277;-46
2022/06/26 01:48:58;;;;;;;2.40;2.23;;;26.80;49.40;;;;;;5025778;28;20520;-50
2022/06/26 01:51:24;;;;;;;2.77;2.50;;;26.70;49.40;;;;;;5027947;28;20225;-46
2022/06/26 01:53:49;;;;;;;2.90;2.70;;;26.80;49.50;;;;;;5027218;28;20193;-48
2022/06/26 01:56:15;;;;;;;3.10;2.90;;;26.80;49.40;;;;;;5020917;28;20375;-47
2022/06/26 01:58:40;;;;;;;3.20;2.90;;;26.80;49.50;;;;;;5021647;28;20272;-50
2022/06/26 02:01:08;;;;;;;3.40;3.20;;;26.70;49.50;;;;;;5023904;28;20197;-50
2022/06/26 02:03:34;;;;;;;3.73;3.43;;;26.50;49.80;;;;;;5028348;28;20209;-47
2022/06/26 02:06:00;;;;;;;4.43;3.27;;;26.50;50.00;;;;;;5021888;28;20782;-49
2022/06/26 02:08:25;;;;;;;3.33;3.13;;;26.40;50.30;;;;;;5020578;28;20196;-50
2022/06/26 02:13:42;;;;;;;3.00;2.70;;;26.20;50.80;;;;;;5022689;28;20204;-48
2022/06/26 02:16:22;;;;;;;3.40;3.20;;;26.20;50.80;;;;;;5029757;28;20448;-47
2022/06/26 02:18:51;;;;;;;3.43;3.23;;;26.30;50.80;;;;;;5023026;28;20868;-50
2022/06/26 02:21:19;;;;;;;3.40;3.10;;;26.40;50.70;;;;;;5025308;28;20920;-50
2022/06/26 02:23:47;;;;;;;4.17;3.30;;;26.40;50.60;;;;;;5022510;28;20979;-48
2022/06/26 02:26:13;;;;;;;3.20;3.00;;;26.50;50.40;;;;;;5016788;28;20476;-47
2022/06/26 02:28:40;;;;;;;3.10;2.77;;;26.50;50.40;;;;;;5025663;28;20447;-47
2022/06/26 02:31:07;;;;;;;4.10;3.70;;;26.60;50.30;;;;;;5026707;28;20965;-45
2022/06/26 02:33:34;;;;;;;3.73;3.40;;;26.70;50.30;;;;;;5023449;28;20796;-47
2022/06/26 02:35:59;;;;;;;3.70;3.40;;;26.60;50.50;;;;;;5021905;28;20444;-48
2022/06/26 02:38:25;;;;;;;4.23;3.40;;;26.50;50.60;;;;;;5028545;28;20509;-47
2022/06/26 02:40:52;;;;;;;3.53;3.33;;;26.40;50.60;;;;;;5021476;28;20193;-48
2022/06/26 02:43:27;;;;;;;3.97;3.47;;;26.40;50.70;;;;;;5025679;28;20491;-50
2022/06/26 02:45:55;;;;;;;3.23;2.40;;;26.40;50.80;;;;;;5023928;28;20443;-48
2022/06/26 02:48:21;;;;;;;3.33;3.03;;;26.40;51.50;;;;;;5026390;28;20514;-49
2022/06/26 02:50:47;;;;;;;3.90;3.50;;;26.40;50.90;;;;;;5023687;28;20448;-49
2022/06/26 02:53:13;;;;;;;3.60;3.30;;;26.40;50.90;;;;;;5028371;28;20451;-45
2022/06/26 02:55:38;;;;;;;3.73;3.43;;;26.30;51.50;;;;;;5026420;28;20200;-50
2022/06/26 02:58:04;;;;;;;3.60;3.30;;;26.30;50.90;;;;;;5024275;28;20947;-51
2022/06/26 03:00:30;;;;;;;7.70;3.17;;;26.30;51.00;;;;;;5025933;28;20190;-47
2022/06/26 03:02:56;;;;;;;2.90;2.70;;;26.30;51.30;;;;;;5022708;28;20324;-46
2022/06/26 03:05:21;;;;;;;4.10;3.00;;;26.20;51.50;;;;;;5021833;28;20604;-51
2022/06/26 03:07:47;;;;;;;5.00;3.23;;;26.20;51.80;;;;;;5028552;28;20582;-50
2022/06/26 03:10:13;;;;;;;6.93;3.33;;;26.20;51.90;;;;;;5027436;28;20208;-48
2022/06/26 03:12:46;;;;;;;3.90;3.60;;;26.20;51.70;;;;;;5028419;28;20189;-48
2022/06/26 03:15:12;;;;;;;13.40;4.60;;;26.20;51.50;;;;;;5026446;28;20204;-50
2022/06/26 03:17:38;;;;;;;3.43;3.13;;;26.20;51.70;;;;;;5027525;28;20444;-47
2022/06/26 03:20:09;;;;;;;4.03;3.40;;;26.10;51.90;;;;;;5020909;28;20193;-51
2022/06/26 03:22:35;;;;;;;3.30;3.00;;;26.00;52.00;;;;;;5025822;28;20491;-49
2022/06/26 03:25:00;;;;;;;3.20;2.87;;;25.90;52.30;;;;;;5016760;28;20440;-45
2022/06/26 03:27:26;;;;;;;3.83;3.53;;;25.80;52.40;;;;;;5023016;28;20197;-49
2022/06/26 03:29:51;;;;;;;3.70;3.40;;;25.70;52.60;;;;;;5026215;28;20244;-49
2022/06/26 03:32:17;;;;;;;3.73;3.43;;;25.70;52.90;;;;;;5026461;28;20247;-49
2022/06/26 03:34:43;;;;;;;3.57;3.37;;;25.70;53.00;;;;;;5024420;28;20197;-50
2022/06/26 03:37:08;;;;;;;3.63;3.43;;;25.40;53.80;;;;;;5020650;28;20193;-49
2022/06/26 03:39:34;;;;;;;3.80;3.40;;;25.40;53.90;;;;;;5023336;28;20197;-49
2022/06/26 03:42:02;;;;;;;3.30;3.00;;;25.50;53.70;;;;;;5018951;28;20225;-47
2022/06/26 03:44:30;;;;;;;4.10;3.80;;;25.50;53.50;;;;;;5023872;28;20201;-50
2022/06/26 03:46:57;;;;;;;4.93;3.70;;;25.60;53.20;;;;;;5025306;28;20444;-51
2022/06/26 03:49:23;;;;;;;3.90;3.60;;;25.50;53.20;;;;;;5021753;28;20958;-50
2022/06/26 03:51:49;;;;;;;7.50;4.80;;;25.40;53.50;;;;;;5001421;28;20475;-46
2022/06/26 03:54:15;;;;;;;4.00;3.70;;;25.40;53.40;;;;;;5020567;28;20432;-49
2022/06/26 03:56:41;;;;;;;5.17;3.80;;;25.50;53.20;;;;;;5020417;28;20503;-48
2022/06/26 03:59:07;;;;;;;4.30;3.90;;;25.40;53.50;;;;;;5021429;28;20196;-49
2022/06/26 04:01:33;;;;;;;3.90;3.60;;;25.20;53.90;;;;;;5019378;28;20232;-46
2022/06/26 04:03:58;;;;;;;3.90;3.60;;;25.10;54.10;;;;;;5027981;28;20440;-49
2022/06/26 04:06:24;;;;;;;3.97;3.67;;;25.10;54.30;;;;;;5020299;28;20200;-50
2022/06/26 04:08:50;;;;;;;7.50;4.47;;;25.30;54.10;;;;;;5022262;28;20189;-49
2022/06/26 04:11:15;;;;;;;4.23;3.93;;;25.40;53.80;;;;;;5028193;28;20206;-46
2022/06/26 04:13:42;;;;;;;6.53;4.20;;;25.40;53.70;;;;;;5017978;28;20201;-50
2022/06/26 04:16:07;;;;;;;4.63;4.10;;;25.50;53.70;;;;;;5016946;28;20193;-48
2022/06/26 04:18:34;;;;;;;5.00;4.10;;;25.70;53.20;;;;;;5018132;28;20463;-50
2022/06/26 04:20:59;;;;;;;3.83;3.53;;;25.80;52.90;;;;;;5020384;28;20189;-45
2022/06/26 04:23:25;;;;;;;4.50;4.17;;;25.70;52.90;;;;;;5022467;28;20993;-48
2022/06/26 04:25:50;;;;;;;5.00;3.40;;;25.60;53.10;;;;;;5026434;28;20201;-50
2022/06/26 04:28:16;;;;;;;4.03;3.33;;;25.70;53.30;;;;;;5005436;28;20195;-50
2022/06/26 04:30:42;;;;;;;4.30;3.23;;;25.80;53.00;;;;;;5021763;28;20198;-47
2022/06/26 04:33:08;;;;;;;3.23;2.93;;;25.90;52.90;;;;;;5021801;28;20204;-49
2022/06/26 04:35:33;;;;;;;4.13;3.83;;;25.90;52.70;;;;;;5026283;28;20207;-48
2022/06/26 04:37:59;;;;;;;3.60;3.23;;;26.00;53.20;;;;;;5023584;28;20196;-51
2022/06/26 04:40:25;;;;;;;3.60;3.20;;;26.00;52.60;;;;;;5017353;28;20193;-48
2022/06/26 04:42:50;;;;;;;3.80;3.00;;;26.10;52.60;;;;;;5014394;28;20317;-46
2022/06/26 04:45:16;;;;;;;3.43;3.10;;;26.10;52.30;;;;;;5023366;28;20201;-50
2022/06/26 04:47:42;;;;;;;3.40;2.80;;;26.10;52.40;;;;;;5026516;28;20198;-51
2022/06/26 04:50:08;;;;;;;3.33;3.13;;;26.10;52.40;;;;;;5021863;28;20201;-49
2022/06/26 04:52:34;;;;;;;3.30;2.70;;;26.10;52.60;;;;;;5022862;28;20312;-46
2022/06/26 04:55:00;;;;;;;6.10;2.90;;;26.10;52.60;;;;;;5022647;28;20661;-46
2022/06/26 04:57:25;;;;;;;2.93;2.73;;;26.10;52.70;;;;;;5019415;28;20276;-51
2022/06/26 04:59:51;;;;;;;4.00;3.70;;;26.10;52.60;;;;;;5022152;28;20208;-47
2022/06/26 05:02:17;;;;;;;2.70;2.33;;;26.10;52.50;;;;;;5025394;28;20318;-51
2022/06/26 05:04:42;;;;;;;4.13;3.43;;;26.20;52.40;;;;;;5023556;28;20561;-47
2022/06/26 05:07:08;;;;;;;3.07;2.87;;;26.20;52.10;;;;;;5026295;28;20201;-46
2022/06/26 05:09:33;;;;;;;3.97;3.23;;;26.20;52.60;;;;;;5024890;28;20198;-49
2022/06/26 05:11:59;;;;;;;2.77;2.57;;;26.20;52.60;;;;;;5024748;28;20193;-50
2022/06/26 05:14:25;;;;;;;3.47;2.80;;;26.30;52.40;;;;;;5025381;28;20190;-51
2022/06/26 05:16:51;;;;;;;3.30;3.10;;;26.30;52.40;;;;;;5026138;28;20251;-49
2022/06/26 05:19:16;;;;;;;5.23;2.93;;;26.30;52.30;;;;;;5027941;28;20201;-48
2022/06/26 05:21:42;;;;;;;2.70;2.50;;;26.40;52.30;;;;;;5030271;28;20231;-51
2022/06/26 05:24:08;;;;;;;5.03;2.50;;;26.40;52.30;;;;;;5029908;28;20197;-53
2022/06/26 05:26:34;;;;;;;3.07;2.83;;;26.30;52.40;;;;;;5023571;28;20205;-51
2022/06/26 05:29:00;;;;;;;14.17;2.93;;;26.40;52.20;;;;;;5025860;28;20205;-50
2022/06/26 05:31:25;;;;;;;3.33;3.03;;;26.40;52.00;;;;;;5026066;28;20475;-51
2022/06/26 05:33:51;;;;;;;2.60;2.40;;;26.40;52.30;;;;;;5028747;28;20220;-52
2022/06/26 05:36:17;;;;;;;2.87;2.67;;;26.30;52.50;;;;;;5031071;28;20208;-48
2022/06/26 05:38:43;;;;;;;5.47;2.70;;;26.20;53.00;;;;;;5019222;28;20228;-52
2022/06/26 05:41:08;;;;;;;2.80;2.60;;;26.20;53.00;;;;;;5030591;28;20212;-50
2022/06/26 05:43:34;;;;;;;6.50;3.10;;;26.30;52.60;;;;;;5024661;28;20216;-52
2022/06/26 05:46:00;;;;;;;3.13;2.90;;;26.40;52.60;;;;;;5031714;28;20648;-51
2022/06/26 05:48:27;;;;;;;4.00;2.50;;;26.30;52.50;;;;;;5031302;28;20194;-47
2022/06/26 05:50:53;;;;;;;4.67;3.20;;;26.40;52.50;;;;;;5027770;28;20441;-52
2022/06/26 05:53:19;;;;;;;3.03;2.60;;;26.50;51.90;;;;;;5022732;28;20436;-50
2022/06/26 05:55:46;;;;;;;3.07;2.80;;;26.50;51.80;;;;;;5030238;28;20435;-48
2022/06/26 05:58:12;;;;;;;3.00;2.80;;;26.40;51.90;;;;;;5031452;28;20455;-51
2022/06/26 06:00:38;;;;;;;2.60;2.40;;;26.40;52.20;;;;;;5032217;28;20428;-48
2022/06/26 06:03:05;;;;;;;5.77;2.63;;;26.50;52.30;;;;;;5027697;28;20537;-51
2022/06/26 06:05:31;;;;;;;3.00;2.40;;;26.60;52.10;;;;;;5031776;28;20428;-47
2022/06/26 06:07:58;;;;;;;3.33;2.87;;;26.60;52.30;;;;;;5031469;28;20494;-47
2022/06/26 06:10:24;;;;;;;2.83;2.50;;;26.60;52.50;;;;;;5031768;28;21287;-49
2022/06/26 06:12:51;;;;;;;2.70;2.50;;;26.70;52.20;;;;;;5031216;28;20927;-49
2022/06/26 06:15:17;;;;;;;3.10;2.70;;;26.70;52.10;;;;;;5030529;28;20451;-52
2022/06/26 06:17:44;;;;;;;3.60;2.30;;;26.70;52.30;;;;;;5031252;28;20424;-47
2022/06/26 06:20:12;;;;;;;2.77;2.57;;;26.70;52.30;;;;;;5031381;28;20431;-52
2022/06/26 06:22:43;;;;;;;2.60;2.40;;;26.70;52.60;;;;;;5029418;28;20483;-52
2022/06/26 06:25:10;;;;;;;4.03;2.40;;;26.80;52.60;;;;;;5030356;28;20440;-50
2022/06/26 06:27:38;;;;;;;2.43;2.23;;;26.80;52.40;;;;;;5030881;28;20470;-52
2022/06/26 06:30:05;;;;;;;6.90;2.30;;;26.80;52.20;;;;;;5031256;28;20977;-50
2022/06/26 06:32:31;;;;;;;4.37;2.40;;;26.90;52.20;;;;;;5029988;28;20464;-49
2022/06/26 06:34:57;;;;;;;2.33;2.23;;;26.90;52.00;;;;;;5027744;28;20479;-52
2022/06/26 06:37:22;;;;;;;2.90;2.00;;;26.90;52.00;;;;;;5025406;28;20547;-46
2022/06/26 06:39:48;;;;;;;2.50;2.30;;;26.90;51.80;;;;;;5029925;28;20198;-48
2022/06/26 06:42:14;;;;;;;2.50;2.30;;;27.00;51.80;;;;;;5029168;28;20311;-48
2022/06/26 06:44:43;;;;;;;2.27;2.17;;;27.00;52.00;;;;;;5022494;28;20288;-50
2022/06/26 06:47:08;;;;;;;2.30;1.90;;;27.00;52.10;;;;;;5027789;28;20197;-46
2022/06/26 06:49:34;;;;;;;4.00;2.20;;;27.00;52.00;;;;;;5025982;28;20850;-53
2022/06/26 06:52:00;;;;;;;2.80;2.50;;;27.10;51.80;;;;;;5024800;28;20842;-51
2022/06/26 06:54:25;;;;;;;2.50;2.30;;;27.20;51.20;;;;;;5025409;28;20728;-50
2022/06/26 06:56:52;;;;;;;3.03;2.30;;;27.30;50.70;;;;;;5020165;28;20240;-46
2022/06/26 06:59:18;;;;;;;2.27;2.17;;;27.50;50.10;;;;;;5027506;28;20190;-52
2022/06/26 07:01:44;;;;;;;2.07;1.97;;;27.60;50.80;;;;;;5025735;28;20510;-48
2022/06/26 07:04:10;;;;;;;2.83;2.20;;;27.80;50.30;;;;;;5023554;28;20247;-53
2022/06/26 07:06:36;;;;;;;2.27;2.10;;;27.90;48.90;;;;;;5027632;28;20448;-48
2022/06/26 07:09:03;;;;;;;2.40;2.10;;;28.00;47.40;;;;;;5024802;28;20428;-47
2022/06/26 07:11:29;;;;;;;1.70;1.60;;;28.10;47.60;;;;;;5022766;28;20200;-51
2022/06/26 07:13:54;;;;;;;1.90;1.80;;;28.20;47.90;;;;;;5028337;28;20439;-47
2022/06/26 07:16:20;;;;;;;2.23;2.07;;;28.40;47.70;;;;;;5027408;28;20197;-50
2022/06/26 07:18:46;;;;;;;1.77;1.67;;;28.50;46.80;;;;;;5025932;28;20217;-49
2022/06/26 07:21:11;;;;;;;2.60;2.40;;;28.60;46.70;;;;;;5028077;28;20185;-49
2022/06/26 07:23:37;;;;;;;2.27;2.10;;;28.70;46.50;;;;;;5028555;28;20875;-48
2022/06/26 07:26:03;;;;;;;2.07;1.97;;;28.80;45.60;;;;;;5026521;28;20197;-49
2022/06/26 07:28:29;;;;;;;2.07;1.97;;;28.90;46.20;;;;;;5027749;28;20181;-51
2022/06/26 07:30:54;;;;;;;2.60;1.90;;;28.90;45.90;;;;;;5022830;28;20451;-50
2022/06/26 07:36:04;;;;;;;2.80;2.10;;;29.10;44.60;;;;;;5025593;28;20243;-49
2022/06/26 07:38:30;;;;;;;1.80;1.70;;;29.20;44.60;;;;;;5025799;28;20440;-50
2022/06/26 07:40:56;;;;;;;1.90;1.80;;;29.20;44.60;;;;;;5026496;28;20308;-46
2022/06/26 07:43:22;;;;;;;2.00;1.80;;;29.20;44.10;;;;;;5025400;28;20309;-46
2022/06/26 07:45:48;;;;;;;1.80;1.70;;;29.40;44.30;;;;;;5017259;28;20201;-48
2022/06/26 07:48:14;;;;;;;1.80;1.70;;;29.40;43.30;;;;;;5025934;28;20189;-51
2022/06/26 07:50:40;;;;;;;1.90;1.80;;;29.50;43.50;;;;;;5028293;28;20519;-48
2022/06/26 07:53:05;;;;;;;1.63;1.53;;;29.40;43.50;;;;;;5026891;28;20358;-46
2022/06/26 07:55:31;;;;;;;1.67;1.47;;;29.50;43.20;;;;;;5024947;28;20194;-49
2022/06/26 07:57:57;;;;;;;2.10;1.80;;;29.60;43.20;;;;;;5022073;28;20197;-49
2022/06/26 08:00:23;;;;;;;1.87;1.67;;;29.60;44.10;;;;;;5016525;28;20304;-48
2022/06/26 08:02:52;;;;;;;1.50;1.40;;;29.80;42.90;;;;;;5027814;28;20232;-49
2022/06/26 08:05:18;;;;;;;1.57;1.37;;;29.90;42.20;;;;;;5028312;28;20448;-52
2022/06/26 08:07:44;;;;;;;1.30;1.20;;;30.10;42.40;;;;;;5028105;28;20531;-49
2022/06/26 08:10:11;;;;;;;1.30;1.20;;;30.20;41.60;;;;;;5029043;28;20200;-49
2022/06/26 08:12:37;;;;;;;1.60;1.50;;;30.30;41.70;;;;;;5025722;28;20439;-53
2022/06/26 08:15:03;;;;;;;1.33;1.23;;;30.40;43.00;;;;;;5022139;28;20831;-51
2022/06/26 08:17:29;;;;;;;2.13;1.40;;;30.60;42.50;;;;;;5022040;28;20805;-50
2022/06/26 08:19:54;;;;;;;2.63;1.40;;;30.70;43.00;;;;;;5028168;28;20436;-49
2022/06/26 08:22:20;;;;;;;1.50;1.40;;;30.90;41.70;;;;;;5027249;28;20225;-52
2022/06/26 08:24:46;;;;;;;1.30;1.20;;;31.00;41.90;;;;;;5025172;28;20255;-52
2022/06/26 08:27:11;;;;;;;1.57;1.40;;;31.20;41.40;;;;;;5018541;28;20185;-49
2022/06/26 08:29:38;;;;;;;1.73;1.20;;;31.20;40.30;;;;;;5023266;28;20201;-47
2022/06/26 08:32:04;;;;;;;1.20;1.20;;;31.40;41.30;;;;;;5023187;28;20269;-49
2022/06/26 08:34:30;;;;;;;1.27;1.17;;;31.60;41.90;;;;;;5023387;28;20925;-47
2022/06/26 08:36:56;;;;;;;1.30;1.20;;;31.80;40.40;;;;;;5024532;28;20731;-46
2022/06/26 08:39:23;;;;;;;4.00;1.30;;;31.80;40.00;;;;;;5027547;28;20970;-47
2022/06/26 08:41:52;;;;;;;1.50;1.40;;;31.80;39.00;;;;;;5023713;28;20482;-49
2022/06/26 08:44:18;;;;;;;1.40;1.30;;;31.90;40.10;;;;;;5014753;28;20452;-49
2022/06/26 08:46:45;;;;;;;3.00;1.67;;;31.90;38.90;;;;;;5024813;28;20498;-48
2022/06/26 08:49:16;;;;;;;2.50;1.50;;;31.70;39.20;;;;;;5025512;28;20189;-51
2022/06/26 08:51:44;;;;;;;1.30;1.30;;;31.90;40.80;;;;;;5029713;28;20540;-49
2022/06/26 08:54:12;;;;;;;1.73;1.20;;;32.00;41.10;;;;;;5017439;28;20487;-51
2022/06/26 08:56:41;;;;;;;1.83;1.40;;;32.10;39.40;;;;;;5025552;28;20857;-48
2022/06/26 08:59:11;;;;;;;1.60;1.50;;;32.30;39.50;;;;;;5026737;28;20451;-50
2022/06/26 09:01:38;;;;;;;1.40;1.40;;;32.40;40.70;;;;;;5024406;28;20472;-47
2022/06/26 09:04:05;;;;;;;1.57;1.47;;;32.60;40.30;;;;;;5021903;28;20436;-50
2022/06/26 09:06:33;;;;;;;1.50;1.40;;;32.80;38.70;;;;;;5026886;28;20475;-51
2022/06/26 09:08:58;;;;;;;1.93;1.70;;;33.00;38.60;;;;;;5028101;28;20443;-50
2022/06/26 09:11:24;;;;;;;1.73;1.20;;;32.90;37.20;;;;;;5030311;28;20911;-49
2022/06/26 09:13:53;;;;;;;1.60;1.50;;;33.00;37.70;;;;;;5023552;28;20292;-49
2022/06/26 09:16:33;;;;;;;2.07;1.70;;;33.00;37.50;;;;;;5028194;28;20229;-51
2022/06/26 09:19:12;;;;;;;1.50;1.40;;;33.10;37.40;;;;;;5029586;28;20444;-48
2022/06/26 09:21:38;;;;;;;2.03;1.17;;;33.30;38.20;;;;;;5030724;28;20989;-48
2022/06/26 09:24:08;;;;;;;2.77;1.90;;;33.20;38.00;;;;;;5027755;28;20455;-49
2022/06/26 09:26:33;;;;;;;1.47;1.37;;;33.30;38.20;;;;;;5021325;28;20446;-50
2022/06/26 09:29:11;;;;;;;1.50;1.40;;;33.60;36.70;;;;;;5028489;28;20444;-50
2022/06/26 09:31:37;;;;;;;1.33;1.30;;;33.80;36.50;;;;;;5027640;28;20569;-51
2022/06/26 09:34:18;;;;;;;1.60;1.50;;;33.80;36.50;;;;;;5030940;28;20535;-50
2022/06/26 09:37:01;;;;;;;1.40;1.30;;;33.90;37.60;;;;;;5025806;28;20448;-48
2022/06/26 09:39:28;;;;;;;1.40;1.20;;;34.00;36.00;;;;;;5032070;28;20532;-49
2022/06/26 09:41:54;;;;;;;1.63;1.40;;;34.10;35.60;;;;;;5029510;28;20480;-47
2022/06/26 09:44:21;;;;;;;1.47;1.00;;;34.20;35.10;;;;;;5032438;28;20482;-52
2022/06/26 09:46:47;;;;;;;1.50;1.40;;;34.20;34.70;;;;;;5030887;28;20624;-49
2022/06/26 09:52:35;;;;;;;1.50;1.40;;;34.20;35.60;;;;;;5142007;22;20252;-50
2022/06/26 09:55:02;;;;;;;3.33;1.53;;;34.10;36.70;;;;;;5033082;28;20432;-50
2022/06/26 09:57:29;;;;;;;1.57;1.47;;;34.20;35.70;;;;;;5042805;28;20201;-47
2022/06/26 09:59:55;;;;;;;1.13;1.10;;;34.30;35.30;;;;;;5032296;28;20493;-50
2022/06/26 10:08:00;;;;;;;1.50;1.40;;;34.60;35.10;;;;;;5039392;28;20534;-48
2022/06/26 10:10:26;;;;;;;1.50;1.40;;;34.60;34.60;;;;;;5037340;28;20444;-47
2022/06/26 10:12:58;;;;;;;2.33;1.30;;;34.70;34.70;;;;;;5031025;28;20431;-48
2022/06/26 10:15:28;;;;;;;1.20;1.10;;;34.90;34.40;;;;;;5030346;28;20248;-49
2022/06/26 10:18:12;;;;;;;1.30;1.20;;;35.10;35.20;;;;;;5031526;28;20428;-50
2022/06/26 10:20:40;;;;;;;1.27;1.17;;;35.20;33.10;;;;;;5041847;28;20451;-46
2022/06/26 10:23:05;;;;;;;1.70;1.60;;;35.30;33.90;;;;;;5040104;28;21025;-48
2022/06/26 10:25:32;;;;;;;1.67;1.30;;;35.40;33.90;;;;;;5034027;28;20467;-49
2022/06/26 10:28:00;;;;;;;1.37;1.27;;;35.40;33.40;;;;;;5036969;28;20201;-47
2022/06/26 10:30:28;;;;;;;1.83;1.50;;;35.60;33.10;;;;;;5039482;28;20447;-51
2022/06/26 10:33:18;;;;;;;1.43;1.33;;;35.60;32.90;;;;;;5032891;28;20456;-51
2022/06/26 10:35:48;;;;;;;1.40;1.30;;;35.80;32.90;;;;;;5034647;28;20459;-47
2022/06/26 10:38:23;;;;;;;1.73;1.63;;;35.90;32.30;;;;;;5029609;28;20439;-50
2022/06/26 10:44:13;;;;;;;1.63;1.53;;;36.10;32.20;;;;;;5040567;28;20550;-50
2022/06/26 10:46:49;;;;;;;1.67;1.57;;;36.30;32.10;;;;;;5038707;28;21050;-47
2022/06/26 10:49:15;;;;;;;1.50;1.40;;;36.50;31.70;;;;;;5028105;28;20510;-49
2022/06/26 10:51:42;;;;;;;1.40;1.30;;;36.40;32.40;;;;;;5028744;28;20570;-47
2022/06/26 10:54:27;;;;;;;2.07;1.97;;;36.60;33.10;;;;;;5031540;28;20185;-47
2022/06/26 10:57:02;;;;;;;1.30;1.20;;;36.70;31.40;;;;;;5017327;28;20470;-50
2022/06/26 10:59:28;;;;;;;1.70;1.40;;;36.80;31.10;;;;;;5036204;28;20434;-47
2022/06/26 11:01:54;;;;;;;1.60;1.50;;;36.90;31.90;;;;;;5028686;28;20866;-48
2022/06/26 11:04:20;;;;;;;1.60;1.50;;;36.90;31.80;;;;;;5025933;28;20444;-51
2022/06/26 11:06:46;;;;;;;1.60;1.50;;;37.00;30.60;;;;;;5033006;28;20250;-50
2022/06/26 11:09:12;;;;;;;1.60;1.50;;;37.00;30.30;;;;;;5030861;28;20193;-50
2022/06/26 11:11:37;;;;;;;1.60;1.50;;;37.10;30.50;;;;;;5037071;28;20447;-47
2022/06/26 11:14:09;;;;;;;1.63;1.53;;;37.10;30.90;;;;;;5035197;28;20194;-50
2022/06/26 11:16:45;;;;;;;1.30;1.20;;;37.00;30.60;;;;;;5032450;28;20193;-48
2022/06/26 11:19:23;;;;;;;1.43;1.33;;;37.20;30.00;;;;;;5031435;28;20450;-51
2022/06/26 11:21:49;;;;;;;1.50;1.40;;;37.50;29.50;;;;;;5011051;28;20482;-50
2022/06/26 11:24:15;;;;;;;1.30;1.23;;;37.10;30.30;;;;;;5022990;28;20436;-51
2022/06/26 11:26:40;;;;;;;1.50;1.40;;;37.30;31.50;;;;;;5033444;28;20235;-46
2022/06/26 11:29:08;;;;;;;1.50;1.40;;;37.30;30.40;;;;;;5037390;28;20310;-51
2022/06/26 11:31:35;;;;;;;1.50;1.40;;;37.30;30.40;;;;;;5028204;28;20204;-46
2022/06/26 11:34:15;;;;;;;1.73;1.63;;;37.20;30.10;;;;;;5029789;28;20443;-50
2022/06/26 11:36:57;;;;;;;1.40;1.40;;;37.20;30.70;;;;;;5030306;28;20873;-47
2022/06/26 11:39:24;;;;;;;1.10;1.10;;;36.90;31.00;;;;;;5029833;28;20571;-47
2022/06/26 11:41:50;;;;;;;1.40;1.30;;;37.00;30.20;;;;;;5029215;28;20502;-51
2022/06/26 11:44:16;;;;;;;1.40;1.30;;;37.00;31.20;;;;;;5039592;28;20436;-47
2022/06/26 11:46:42;;;;;;;1.60;1.50;;;37.00;31.20;;;;;;5029996;28;20415;-50
2022/06/26 11:49:11;;;;;;;1.10;1.10;;;36.90;31.30;;;;;;5040071;28;20205;-50
2022/06/26 11:51:37;;;;;;;1.43;1.40;;;36.60;31.10;;;;;;5029662;28;20232;-48
2022/06/26 11:54:03;;;;;;;1.87;1.77;;;36.60;32.30;;;;;;5034126;28;20534;-50
2022/06/26 11:56:30;;;;;;;1.47;1.37;;;36.50;31.80;;;;;;5020664;28;20519;-50
2022/06/26 11:58:59;;;;;;;1.10;1.10;;;36.50;31.40;;;;;;5035364;28;20851;-51
2022/06/26 12:01:37;;;;;;;1.57;1.43;;;36.60;32.60;;;;;;5025519;28;20451;-47
2022/06/26 12:04:04;;;;;;;1.50;1.40;;;36.60;31.90;;;;;;5023948;28;20561;-50
2022/06/26 12:06:41;;;;;;;1.50;1.40;;;36.80;30.80;;;;;;5027751;28;20522;-50
2022/06/26 12:09:28;;;;;;;3.33;2.60;;;37.00;31.10;;;;;;5035344;28;20546;-47
2022/06/26 12:11:55;;;;;;;1.50;1.40;;;37.00;31.00;;;;;;5032365;28;21100;-50
2022/06/26 12:14:25;;;;;;;1.60;1.50;;;37.00;32.10;;;;;;5030107;28;20859;-50
2022/06/26 12:16:53;;;;;;;1.83;1.40;;;36.90;31.60;;;;;;5028748;28;20963;-50
2022/06/26 12:19:20;;;;;;;1.47;1.37;;;37.10;30.90;;;;;;5035797;28;20441;-47
2022/06/26 12:21:51;;;;;;;1.60;1.50;;;37.10;30.40;;;;;;5031833;28;20471;-51
2022/06/26 12:24:18;;;;;;;1.37;1.27;;;36.90;30.80;;;;;;5035673;28;20466;-47
2022/06/26 12:26:45;;;;;;;1.90;1.80;;;36.90;31.10;;;;;;5031856;28;20534;-50
2022/06/26 12:29:13;;;;;;;2.13;1.50;;;36.70;32.20;;;;;;5033485;28;20531;-47
2022/06/26 12:31:39;;;;;;;1.37;1.33;;;36.80;31.10;;;;;;5035667;28;20514;-46
2022/06/26 12:34:05;;;;;;;1.90;1.40;;;37.00;30.10;;;;;;5035444;28;21045;-49
2022/06/26 12:36:32;;;;;;;1.80;1.70;;;37.20;31.20;;;;;;5034659;28;20439;-46
2022/06/26 12:38:58;;;;;;;1.47;1.37;;;37.20;31.30;;;;;;5040995;28;20448;-46
2022/06/26 12:41:24;;;;;;;1.77;1.67;;;37.10;32.00;;;;;;5034317;28;20490;-48
2022/06/26 12:43:52;;;;;;;2.03;1.40;;;37.30;30.80;;;;;;5030875;28;20570;-49
2022/06/26 12:46:18;;;;;;;1.83;1.33;;;37.50;30.10;;;;;;5038910;28;20984;-48
2022/06/26 12:48:44;;;;;;;1.20;1.10;;;37.40;30.20;;;;;;5034913;28;20474;-48
2022/06/26 12:51:10;;;;;;;1.60;1.50;;;37.30;30.80;;;;;;5037280;28;20540;-46
2022/06/26 12:53:36;;;;;;;1.43;1.30;;;37.10;30.60;;;;;;5040824;28;20439;-47
2022/06/26 12:56:02;;;;;;;3.37;1.50;;;37.10;30.90;;;;;;5043699;28;20456;-47
2022/06/26 12:58:28;;;;;;;1.87;1.57;;;37.00;31.20;;;;;;5033881;28;20193;-46
2022/06/26 13:00:54;;;;;;;1.40;1.30;;;37.20;31.50;;;;;;5039190;28;20457;-48
2022/06/26 13:03:21;;;;;;;1.70;1.60;;;37.40;31.60;;;;;;5034477;28;20483;-50
2022/06/26 13:05:47;;;;;;;1.90;1.80;;;37.40;30.80;;;;;;5024411;28;20196;-47